Terminal Aerodrome Forecast
Issued by NWS Wichita, KS

Home | Current Version | Previous Version | Graphics & Text | Print | Product List | Glossary On
Versions: 1 2 3 4 5 6 7 8 9 10 11 12 13 14 15 16 17 18 19 20 21 22
000
FTUS43 KICT 250645 AAA
TAFICT
TAF AMD
KICT 250645Z 2507/2606 20012KT P6SM VCTS SCT015 BKN025CB
     FM250800 26011KT P6SM VCSH SCT015 BKN035
      TEMPO 2508/2510 -SHRA
     FM251200 27011KT P6SM SCT035
     FM252100 31011KT P6SM SCT040 BKN100
     FM260100 04014KT P6SM SCT050=

USA.gov is the U.S. government's official web portal to all federal, state and local government web resources and services.